Latest Coastal Weather Observations for Esperance

IDW60701

Issued at 10:53 pm WST Tuesday 22 August 2017 (issued every 10 minutes, with the page automatically refreshed every 10 minutes)

About coastal observations | Map of coastal stations | Coastal observations for WA | Marine services | Other Formats
Station Details ID: 009789 Name: ESPERANCE Lat: -33.83 Lon: 121.89 Height: 25.0 m
Data from the previous 72 hours. | See also: Recent months at Esperance
Date/Time
WST
Temp
°C
Wind Pressure Rain since
9am
mm
Weather Cloud Vis
km
Sea
Height
m
Swell
Dir  Spd
kts
Gust
kts
hPa Trend Height
m
Period
s
Dir
22/10:30pm 13.2 SSW 7 11 1024.9 - 0.4 - Cloudy 10 - - - -
22/10:00pm 13.3 S 6 9 1024.7 - 0.4 - Cloudy 10 - - - -
22/09:30pm 13.5 SSE 7 9 1024.5 - 0.4 - Partly cloudy 10 - - - -
22/09:00pm 13.4 S 9 13 1024.2 R 0.4 Recent precip. Cloudy 10 - - - -
22/08:33pm 13.0 S 10 14 1024.0 - 0.4 - Partly cloudy 10 - - - -
22/08:30pm 13.1 S 10 14 1024.0 - 0.4 - Partly cloudy 10 - - - -
22/08:28pm 13.1 S 9 14 1024.0 - 0.4 - Partly cloudy 10 - - - -
22/08:17pm 12.6 SW 4 9 1023.8 - 0.4 - Partly cloudy 6 - - - -
22/08:15pm 12.5 WSW 4 6 1023.8 - 0.4 - Partly cloudy 7 - - - -
22/08:00pm 12.0 NW 4 4 1023.6 - 0.2 - Partly cloudy 10 - - - -
22/07:30pm 12.0 NW 3 4 1023.4 - 0.2 - Partly cloudy 10 - - - -
22/07:00pm 12.6 S 3 4 1023.0 - 0.2 - Partly cloudy 10 - - - -
22/06:54pm 12.5 S 4 4 1022.9 - 0.2 - Partly cloudy 10 - - - -
22/06:37pm 12.6 SW 6 10 1022.8 - 0.2 - Partly cloudy 7 - - - -
22/06:30pm 13.1 W 3 5 1022.7 - 0.0 - Partly cloudy 10 - - - -
22/06:00pm 13.5 W 4 5 1022.1 R 0.0 - - 10 - - - -
22/05:30pm 14.0 WSW 4 6 1021.8 - 0.0 - - 10 - - - -
22/05:00pm 15.3 WSW 5 9 1021.6 - 0.0 - - 10 - - - -
22/04:30pm 15.9 WSW 6 9 1021.4 - 0.0 - - 10 - - - -
22/04:00pm 16.1 WSW 7 11 1021.2 - 0.0 - - 10 - - - -
22/03:30pm 16.6 WSW 9 12 1020.8 - 0.0 - - 10 - - - -
22/03:00pm 16.5 WSW 10 14 1020.5 R 0.0 - - 10 - - - -
22/02:30pm 16.8 WSW 10 17 1020.2 - 0.0 - Mostly clear 10 - - - -
22/02:00pm 17.5 WSW 9 15 1020.1 - 0.0 - Mostly clear 10 - - - -
22/01:30pm 16.6 WSW 10 15 1020.0 - 0.0 - Mostly clear 10 - - - -
22/01:00pm 16.7 WSW 10 14 1020.1 - 0.0 - Mostly clear 10 - - - -
22/12:30pm 16.2 WSW 10 13 1020.2 - 0.0 - Mostly clear 10 - - - -
22/12:00pm 16.8 W 8 14 1020.4 R 0.0 - Cloudy 10 - - - -
22/11:30am 16.7 NW 7 10 1020.5 - 0.0 - Mostly clear 10 - - - -
22/11:00am 15.7 NW 7 9 1020.9 - 0.0 - Cloudy 10 - - - -
22/10:30am 15.3 NW 8 10 1021.0 - 0.0 - Cloudy 10 - - - -
22/10:00am 13.7 NW 8 11 1021.1 - 0.0 - Cloudy 10 - - - -
22/09:30am 13.5 WNW 9 13 1021.0 - 0.0 - Partly cloudy 10 - - - -
22/09:00am 13.1 NW 8 11 1020.9 R 0.0 - Partly cloudy 10 - - - -
22/08:30am 12.1 NW 7 9 1020.9 - 0.0 - Cloudy 10 - - - -
22/08:00am 11.2 NW 8 10 1020.8 - 0.0 - - 10 - - - -
22/07:30am 10.2 NNW 7 9 1020.6 - 0.0 - - 10 - - - -
22/07:00am 9.2 NNW 7 10 1020.2 - 0.0 - Mostly clear 10 - - - -
22/06:30am 8.9 N 5 9 1019.8 - 0.0 - - 10 - - - -
22/06:00am 8.6 NNW 5 7 1019.6 F 0.0 - - 10 - - - -
22/05:30am 8.1 NNW 8 9 1019.4 - 0.0 - - 10 - - - -
22/05:00am 7.8 NNW 4 5 1019.4 - 0.0 - - 10 - - - -
22/04:30am 8.0 NNW 6 7 1019.4 - 0.0 - - 10 - - - -
22/04:00am 7.8 N 4 6 1019.3 - 0.0 - - 10 - - - -
22/03:30am 7.5 N 5 6 1019.3 - 0.0 - - 10 - - - -
22/03:00am 7.8 N 5 6 1019.3 R 0.0 - - 10 - - - -
22/02:30am 8.1 N 5 6 1019.4 - 0.0 - - 10 - - - -
22/02:00am 8.2 N 6 7 1019.5 - 0.0 - - 10 - - - -
22/01:30am 8.0 N 5 6 1019.8 - 0.0 - - 10 - - - -
22/01:00am 8.2 N 5 6 1019.9 - 0.0 - - 10 - - - -
22/12:30am 8.2 N 6 6 1020.0 - 0.0 - - 10 - - - -
22/12:00am 7.9 N 5 6 1020.1 R 0.0 - - 10 - - - -
 
Date/Time
WST
Temp
°C
Wind Pressure Rain since
9am
mm
Weather Cloud Vis
km
Sea
Height
m
Swell
Dir  Spd
kts
Gust
kts
hPa Trend Height
m
Period
s
Dir
21/11:30pm 8.2 N 5 6 1020.3 - 0.0 - - 10 - - - -
21/11:00pm 8.3 N 4 5 1020.3 - 0.0 - - 10 - - - -
21/10:30pm 8.6 N 5 6 1020.3 - 0.0 - - 10 - - - -
21/10:00pm 9.2 NNW 4 4 1020.3 - 0.0 - - 10 - - - -
21/09:30pm 9.2 N 5 6 1020.5 - 0.0 - - 10 - - - -
21/09:00pm 9.4 N 5 6 1020.4 F 0.0 - - 10 - - - -
21/08:30pm 10.1 N 5 6 1020.3 - 0.0 - - 10 - - - -
21/08:00pm 10.6 NNW 4 5 1020.2 - 0.0 - - 10 - - - -
21/07:30pm 11.5 NNW 4 5 1020.3 - 0.0 - - 10 - - - -
21/07:00pm 11.9 NNW 4 5 1020.0 - 0.0 - - 10 - - - -
21/06:30pm 12.6 W 3 5 1019.7 - 0.0 - - 10 - - - -
21/06:00pm 13.3 SW 4 5 1019.7 S 0.0 - - 10 - - - -
21/05:30pm 13.9 WSW 5 7 1019.5 - 0.0 - - 10 - - - -
21/05:00pm 15.0 SW 7 10 1019.4 - 0.0 - - 10 - - - -
21/04:30pm 15.4 WSW 7 11 1019.2 - 0.0 - - 10 - - - -
21/04:00pm 16.1 WSW 7 11 1019.0 - 0.0 - - 10 - - - -
21/03:30pm 15.7 WSW 8 11 1018.9 - 0.0 - Partly cloudy 10 - - - -
21/03:00pm 16.1 WSW 8 12 1019.0 F 0.0 - Partly cloudy 10 - - - -
21/02:30pm 16.5 WSW 8 13 1019.1 - 0.0 - Mostly clear 10 - - - -
21/02:00pm 15.8 WSW 7 13 1019.3 - 0.0 - Partly cloudy 10 - - - -
21/01:30pm 15.6 WSW 9 12 1019.5 - 0.0 - Mostly clear 10 - - - -
21/01:00pm 17.3 WNW 11 16 1019.7 - 0.0 - Partly cloudy 10 - - - -
21/12:30pm 15.7 WNW 11 17 1020.3 - 0.0 - Partly cloudy 10 - - - -
21/12:00pm 15.5 WNW 12 16 1020.8 F 0.0 - Mostly cloudy 10 - - - -
21/11:30am 15.9 NW 12 18 1021.2 - 0.0 - Partly cloudy 10 - - - -
21/11:00am 15.0 WNW 13 20 1021.6 - 0.0 - Partly cloudy 10 - - - -
21/10:30am 15.6 NW 13 17 1021.8 - 0.0 - Mostly clear 10 - - - -
21/10:00am 14.9 NW 14 18 1021.9 - 0.0 - Mostly clear 10 - - - -
21/09:30am 14.0 NW 11 15 1021.9 - 0.0 - - 10 - - - -
21/09:00am 13.4 NW 11 15 1022.0 F 0.6 - - 10 - - - -
21/08:30am 12.3 NW 12 16 1022.1 - 0.6 - - 10 - - - -
21/08:00am 11.7 NW 12 17 1022.1 - 0.6 - Mostly clear 10 - - - -
21/07:30am 10.7 NW 9 13 1021.9 - 0.6 - Partly cloudy 10 - - - -
21/07:00am 10.6 NW 9 12 1021.6 - 0.6 - Mostly cloudy 10 - - - -
21/06:30am 10.3 NW 8 10 1021.4 - 0.6 - Cloudy 10 - - - -
21/06:00am 10.4 NW 8 10 1021.4 F 0.6 - Cloudy 10 - - - -
21/05:30am 10.3 NW 8 10 1021.3 - 0.6 - Cloudy 10 - - - -
21/05:00am 10.1 NW 9 13 1021.1 - 0.6 - Cloudy 10 - - - -
21/04:30am 10.0 NW 10 13 1021.0 - 0.6 - Cloudy 10 - - - -
21/04:00am 9.4 NW 8 10 1021.1 - 0.6 - Partly cloudy 10 - - - -
21/03:30am 9.1 NW 8 11 1021.1 - 0.6 - Partly cloudy 10 - - - -
21/03:00am 9.5 NW 7 11 1021.1 R 0.6 - Mostly cloudy 10 - - - -
21/02:30am 9.9 WNW 8 11 1021.1 - 0.6 - Partly cloudy 10 - - - -
21/02:00am 10.4 NW 8 11 1021.0 - 0.6 - - 10 - - - -
21/01:30am 10.9 NW 5 8 1020.9 - 0.6 - Partly cloudy 10 - - - -
21/01:00am 11.9 WNW 6 7 1021.1 - 0.6 - Cloudy 10 - - - -
21/12:30am 11.7 WNW 7 9 1021.2 - 0.6 - Cloudy 10 - - - -
21/12:00am 11.0 NW 6 10 1021.3 R 0.6 - Mostly cloudy 10 - - - -
 
Date/Time
WST
Temp
°C
Wind Pressure Rain since
9am
mm
Weather Cloud Vis
km
Sea
Height
m
Swell
Dir  Spd
kts
Gust
kts
hPa Trend Height
m
Period
s
Dir
20/11:30pm 11.0 NW 7 9 1021.2 - 0.6 - Partly cloudy 10 - - - -
20/11:00pm 12.1 WNW 5 8 1021.4 - 0.6 - Partly cloudy 10 - - - -
20/10:30pm 12.8 NW 6 10 1021.5 - 0.6 - Cloudy 10 - - - -
20/10:00pm 12.8 WNW 4 6 1021.6 - 0.6 - Partly cloudy 10 - - - -
20/09:30pm 13.0 WNW 4 5 1021.7 - 0.6 - Partly cloudy 10 - - - -
20/09:00pm 12.8 WNW 4 5 1021.5 F 0.6 - Mostly cloudy 10 - - - -
20/08:30pm 13.3 SSW 5 8 1021.7 - 0.6 - Partly cloudy 10 - - - -
20/08:00pm 13.2 SSW 7 10 1021.7 - 0.6 - Partly cloudy 10 - - - -
20/07:30pm 12.9 SSW 7 10 1021.6 - 0.6 - Partly cloudy 10 - - - -
20/07:00pm 12.9 SSW 9 16 1021.4 - 0.6 - Partly cloudy 10 - - - -
20/06:30pm 13.6 SSW 6 9 1021.1 - 0.6 - Partly cloudy 10 - - - -
20/06:00pm 13.5 SSW 6 9 1020.9 R 0.6 - Cloudy 10 - - - -
20/05:30pm 13.3 SSW 6 10 1020.8 - 0.6 - Partly cloudy 10 - - - -
20/05:00pm 14.0 SSW 7 10 1020.7 - 0.6 - Partly cloudy 10 - - - -
20/04:30pm 14.1 SSW 9 17 1020.4 - 0.6 - Partly cloudy 10 - - - -
20/04:00pm 14.7 SSW 9 16 1020.3 - 0.6 - Partly cloudy 10 - - - -
20/03:30pm 15.0 SSW 11 18 1020.1 - 0.6 - Partly cloudy 10 - - - -
20/03:00pm 14.6 SSW 10 21 1019.9 R 0.6 - Partly cloudy 10 - - - -
20/02:30pm 15.4 SSW 14 20 1019.7 - 0.6 - Partly cloudy 10 - - - -
20/02:00pm 15.1 SSW 13 23 1019.5 - 0.6 - Partly cloudy 10 - - - -
20/01:30pm 15.4 SSW 14 23 1019.4 - 0.6 - Partly cloudy 10 - - - -
20/01:00pm 15.0 SSW 15 22 1019.2 - 0.6 - Partly cloudy 10 - - - -
20/12:42pm 15.5 SSW 15 26 1019.0 - 0.6 - Partly cloudy 10 - - - -
20/12:30pm 14.9 SSW 15 24 1019.2 - 0.6 - Partly cloudy 10 - - - -
20/12:00pm 13.5 S 14 22 1019.3 R 0.6 - Cloudy 8 - - - -
20/11:30am 14.3 SSW 15 26 1019.3 - 0.6 - Partly cloudy 10 - - - -
20/11:01am 15.3 SSW 15 25 1018.9 - 0.6 - Partly cloudy 10 - - - -
20/11:00am 15.3 SSW 14 22 1019.1 - 0.6 - Partly cloudy 10 - - - -
20/10:35am 14.8 SSW 15 28 1018.6 - 0.6 - Partly cloudy 10 - - - -
20/10:30am 14.1 S 14 21 1018.6 - 0.6 - Partly cloudy 10 - - - -
20/10:00am 13.4 SSW 17 27 1018.0 - 0.6 - Partly cloudy 10 - - - -
20/09:52am 13.5 SSW 15 23 1017.9 - 0.4 - Partly cloudy 10 - - - -
20/09:42am 13.2 SSW 15 25 1017.7 - 0.4 - Partly cloudy 7 - - - -
20/09:31am 13.1 SSW 15 24 1017.7 - 0.2 - Partly cloudy 7 - - - -
20/09:30am 13.1 SSW 15 24 1017.6 - 0.2 - Partly cloudy 8 - - - -
20/09:28am 13.5 SSW 15 24 1017.5 - 0.2 - Partly cloudy 10 - - - -
20/09:00am 13.2 SSW 16 24 1017.1 R 5.6 - Cloudy 7 - - - -
20/08:37am 14.0 SSW 15 25 1016.5 - 5.6 - Partly cloudy 10 - - - -
20/08:30am 14.0 SSW 13 24 1016.4 - 5.6 - Partly cloudy 10 - - - -
20/08:00am 13.2 SW 16 26 1015.9 - 5.6 - Partly cloudy 10 - - - -
20/07:56am 13.2 SW 15 26 1015.7 - 5.6 - Partly cloudy 10 - - - -
20/07:54am 13.1 SW 14 26 1015.7 - 5.6 - Partly cloudy 10 - - - -
20/07:38am 12.9 SSW 16 27 1015.2 - 5.2 - Partly cloudy 7 - - - -
20/07:31am 13.1 SW 16 27 1015.1 - 5.2 - Partly cloudy 10 - - - -
20/07:30am 13.1 SW 16 25 1015.0 - 5.2 - Partly cloudy 9 - - - -
20/07:00am 12.8 SW 16 26 1014.1 - 5.2 - Partly cloudy 10 - - - -
20/06:35am 13.3 SW 17 29 1013.7 - 5.2 - Partly cloudy 10 - - - -
20/06:30am 13.0 SW 16 25 1013.6 - 5.2 - Partly cloudy 10 - - - -
20/06:01am 12.9 SW 15 26 1013.0 - 5.2 - Partly cloudy 10 - - - -
20/06:00am 12.8 SSW 14 26 1013.1 R 5.2 Recent precip. Cloudy 10 - - - -
20/05:30am 12.6 SSW 15 27 1012.5 - 5.2 - Partly cloudy 10 - - - -
20/05:02am 12.8 SSW 15 25 1012.2 - 4.8 - Partly cloudy 10 - - - -
20/05:00am 12.8 SSW 16 25 1012.0 - 4.8 - Partly cloudy 10 - - - -
20/04:30am 13.1 SSW 17 29 1011.6 - 4.8 - Partly cloudy 10 - - - -
20/04:17am 13.1 SSW 15 27 1011.2 - 4.8 - Partly cloudy 10 - - - -
20/04:00am 12.6 SSW 10 17 1011.1 - 4.8 - Partly cloudy 10 - - - -
20/03:48am 12.3 SW 8 14 1011.0 - 4.8 - Partly cloudy 10 - - - -
20/03:47am 12.2 WSW 8 14 1010.9 - 4.8 - Partly cloudy 10 - - - -
20/03:30am 11.2 WNW 11 18 1010.7 - 4.8 - Partly cloudy 3 - - - -
20/03:27am 11.1 WNW 12 18 1010.6 - 4.2 - Partly cloudy 6 - - - -
20/03:24am 11.1 WNW 12 18 1010.6 - 3.6 - Partly cloudy 10 - - - -
20/03:05am 11.0 WNW 12 17 1010.4 - 3.4 - Partly cloudy 10 - - - -
20/03:00am 11.0 WNW 12 18 1010.4 F 3.4 Recent precip. Cloudy 10 - - - -
20/02:38am 10.9 WNW 13 19 1010.4 - 3.4 - Partly cloudy 10 - - - -
20/02:30am 10.7 WNW 12 17 1010.5 - 3.4 - Partly cloudy 8 - - - -
20/02:25am 10.7 WNW 13 19 1010.5 - 3.2 - Partly cloudy 7 - - - -
20/02:00am 10.6 NW 13 18 1010.4 - 2.8 - Partly cloudy 10 - - - -
20/01:30am 10.1 WNW 12 17 1010.8 - 2.6 - Partly cloudy 10 - - - -
20/01:00am 10.1 NW 12 17 1011.0 - 2.6 - Partly cloudy 10 - - - -
20/12:30am 10.1 NW 11 18 1011.4 - 2.6 - Partly cloudy 10 - - - -
20/12:00am 10.6 NW 13 19 1011.6 F 2.6 - Mostly clear 10 - - - -
 
Date/Time
WST
Temp
°C
Wind Pressure Rain since
9am
mm
Weather Cloud Vis
km
Sea
Height
m
Swell
Dir  Spd
kts
Gust
kts
hPa Trend Height
m
Period
s
Dir
19/11:30pm 10.4 NW 11 16 1012.0 - 2.6 - - 10 - - - -
19/11:00pm 10.5 NW 12 16 1012.3 - 2.6 - - 10 - - - -

Other Formats:

Comma delimited format used in spreadsheet applications
http://www.bom.gov.au/fwo/IDW60701/IDW60701.94638.axf

JavaScript Object Notation format (JSON) in row-major order
http://www.bom.gov.au/fwo/IDW60701/IDW60701.94638.json